MMZH/ZIH METAR and TAF weather

Enter ICAO airport designator
Station Type Date Time Source
MMZH METAR 2020/10/21 22:50 UTC NOAA

MMZH 212250Z 17008KT 7SM SCT020CB SCT100 BKN250 32/25 A2980 RMK 8/963 HZY


Station Type Date Time Source
MMZH Decoded METAR 2020/10/21 22:50 UTC NOAA

Ixtapa-Zihuatanejo, Mexico (MMZH) 17-36N 101-28W
Oct 21, 2020 - 06:50 PM EDT / 2020.10.21 2250 UTC
Wind: from the S (170 degrees) at 9 MPH (8 KT):0
Visibility: 7 mile(s):0
Sky conditions: mostly cloudy
Weather: Cumulonimbus clouds observed
Temperature: 89 F (32 C)
Heat index: 100.6 F (38.1 C):1
Dew Point: 77 F (25 C)
Relative Humidity: 66%
Pressure (altimeter): 29.8 in. Hg (1009 hPa)
ob: MMZH 212250Z 17008KT 7SM SCT020CB SCT100 BKN250 32/25 A2980 RMK 8/963 HZY
cycle: 23

Station Type Date Time Source
MMZH TAF 2020/10/22 06:43 UTC NOAA

TAF MMZH 220237Z 2206/2306 23005KT P6SM SCT020 BKN250
FM220800 00000KT P6SM SCT250
FM221600 23010KT P6SM SCT020
FM230200 00000KT P6SM SCT250

Example: see airport list